createdAt,value
2019-04-16T00:00:48.484Z,0.00
2019-04-16T00:01:48.468Z,0.00
2019-04-16T00:02:51.148Z,0.00
2019-04-16T00:03:48.462Z,0.00
2019-04-16T00:04:48.473Z,0.00
2019-04-16T00:05:48.453Z,0.00
2019-04-16T00:06:48.413Z,0.00
2019-04-16T00:07:48.409Z,0.00
2019-04-16T00:08:48.401Z,0.00
2019-04-16T00:09:48.402Z,0.00
2019-04-16T00:10:48.405Z,0.00
2019-04-16T00:11:48.363Z,0.00
2019-04-16T00:12:48.350Z,0.00
2019-04-16T00:13:48.334Z,0.00
2019-04-16T00:14:48.341Z,0.00
2019-04-16T00:15:48.340Z,0.00
2019-04-16T00:16:48.303Z,0.00
2019-04-16T00:17:48.290Z,0.00
2019-04-16T00:18:57.128Z,0.00
2019-04-16T00:19:49.286Z,0.00
2019-04-16T00:20:48.277Z,0.00
2019-04-16T00:21:48.243Z,0.00
2019-04-16T00:22:48.235Z,0.00
2019-04-16T00:23:48.225Z,0.00
2019-04-16T00:24:48.243Z,0.00
2019-04-16T00:25:48.222Z,0.00
2019-04-16T00:26:48.200Z,0.00
2019-04-16T00:27:48.180Z,0.00
2019-04-16T00:28:48.163Z,0.00
2019-04-16T00:29:48.161Z,0.00
2019-04-16T00:30:48.206Z,0.00
2019-04-16T00:31:48.147Z,0.00
2019-04-16T00:32:48.154Z,0.00
2019-04-16T00:33:48.111Z,0.00
2019-04-16T00:34:48.097Z,0.00
2019-04-16T00:35:48.107Z,0.00
2019-04-16T00:36:48.678Z,0.00
2019-04-16T00:37:51.357Z,0.00
2019-04-16T00:38:48.060Z,0.00
2019-04-16T00:39:48.054Z,0.00
2019-04-16T00:40:48.046Z,0.00
2019-04-16T00:41:48.042Z,0.00
2019-04-16T00:42:48.015Z,0.00
2019-04-16T00:43:48.022Z,0.00
2019-04-16T00:44:47.988Z,0.00
2019-04-16T00:45:47.978Z,0.00
2019-04-16T00:46:47.996Z,0.00
2019-04-16T00:47:51.283Z,0.00
2019-04-16T00:48:47.954Z,0.00
2019-04-16T00:49:47.958Z,0.00
2019-04-16T00:50:47.926Z,0.00
2019-04-16T00:51:47.952Z,0.00
2019-04-16T00:52:47.909Z,0.00
2019-04-16T00:53:47.886Z,0.00
2019-04-16T00:54:47.889Z,0.00
2019-04-16T00:55:47.861Z,0.00
2019-04-16T00:56:47.880Z,0.00
2019-04-16T00:57:48.744Z,0.00
2019-04-16T00:58:49.355Z,0.00
2019-04-16T00:59:47.830Z,0.00
2019-04-16T01:00:47.819Z,0.00
2019-04-16T01:01:47.823Z,0.00
2019-04-16T01:02:47.786Z,0.00
2019-04-16T01:03:47.783Z,0.00
2019-04-16T01:04:47.761Z,0.00
2019-04-16T01:05:47.759Z,0.00
2019-04-16T01:06:47.771Z,0.00
2019-04-16T01:07:47.735Z,0.00
2019-04-16T01:08:54.634Z,0.00
2019-04-16T01:09:48.715Z,0.00
2019-04-16T01:10:47.702Z,0.00
2019-04-16T01:11:48.937Z,0.00
2019-04-16T01:12:47.674Z,0.00
2019-04-16T01:13:47.658Z,0.00
2019-04-16T01:14:47.650Z,0.00
2019-04-16T01:15:47.651Z,0.00
2019-04-16T01:16:47.671Z,0.00
2019-04-16T01:17:47.627Z,0.00
2019-04-16T01:18:47.648Z,0.00
2019-04-16T01:19:47.595Z,0.00
2019-04-16T01:20:47.582Z,0.00
2019-04-16T01:21:47.572Z,0.00
2019-04-16T01:22:47.592Z,0.00
2019-04-16T01:23:49.300Z,0.00
2019-04-16T01:24:51.739Z,0.00
2019-04-16T01:25:47.535Z,0.00
2019-04-16T01:26:47.515Z,0.00
2019-04-16T01:27:47.550Z,0.00
2019-04-16T01:28:47.512Z,0.00
2019-04-16T01:29:47.478Z,0.00
2019-04-16T01:30:47.469Z,0.00
2019-04-16T01:31:47.959Z,0.00
2019-04-16T01:32:47.467Z,0.00
2019-04-16T01:33:47.498Z,0.00
2019-04-16T01:34:48.476Z,0.00
2019-04-16T01:35:51.031Z,0.00
2019-04-16T01:36:47.402Z,0.00
2019-04-16T01:37:47.413Z,0.00
2019-04-16T01:38:47.391Z,0.00
2019-04-16T01:39:48.263Z,0.00
2019-04-16T01:40:50.262Z,0.00
2019-04-16T01:41:47.354Z,0.00
2019-04-16T01:42:47.351Z,0.00
2019-04-16T01:43:47.371Z,0.00
2019-04-16T01:44:47.329Z,0.00
2019-04-16T01:45:47.316Z,0.00
2019-04-16T01:46:47.290Z,0.00
2019-04-16T01:47:47.295Z,0.00
2019-04-16T01:48:47.266Z,0.00
2019-04-16T01:49:47.262Z,0.00
2019-04-16T01:50:47.247Z,0.00
2019-04-16T01:51:47.435Z,0.00
2019-04-16T01:52:49.827Z,0.00
2019-04-16T01:53:49.453Z,0.00
2019-04-16T01:54:48.197Z,0.00
2019-04-16T01:55:47.194Z,0.00
2019-04-16T01:56:47.183Z,0.00
2019-04-16T01:57:47.194Z,0.00
2019-04-16T01:58:47.160Z,0.00
2019-04-16T01:59:47.145Z,0.00
2019-04-16T02:00:47.135Z,0.00
2019-04-16T02:01:47.132Z,0.00
2019-04-16T02:02:47.134Z,0.00
2019-04-16T02:03:48.912Z,0.00
2019-04-16T02:04:48.499Z,0.00
2019-04-16T02:05:47.076Z,0.00
2019-04-16T02:06:47.083Z,0.00
2019-04-16T02:07:47.074Z,0.00
2019-04-16T02:08:47.092Z,0.00
2019-04-16T02:09:47.071Z,0.00
2019-04-16T02:10:47.019Z,0.00
2019-04-16T02:11:47.009Z,0.00
2019-04-16T02:12:46.999Z,0.00
2019-04-16T02:13:47.073Z,0.00
2019-04-16T02:14:47.325Z,0.00
2019-04-16T02:15:46.963Z,0.00
2019-04-16T02:16:46.967Z,0.00
2019-04-16T02:17:46.940Z,0.00
2019-04-16T02:18:46.947Z,0.00
2019-04-16T02:19:46.922Z,0.00
2019-04-16T02:20:46.911Z,0.00
2019-04-16T02:21:46.899Z,0.00
2019-04-16T02:22:46.885Z,0.00
2019-04-16T02:23:48.139Z,0.00
2019-04-16T02:24:47.853Z,0.00
2019-04-16T02:25:48.556Z,0.00
2019-04-16T02:26:46.844Z,0.00
2019-04-16T02:27:46.829Z,0.00
2019-04-16T02:28:46.846Z,0.00
2019-04-16T02:29:46.809Z,0.00
2019-04-16T02:30:46.804Z,0.00
2019-04-16T02:31:47.894Z,0.00
2019-04-16T02:32:46.790Z,0.00
2019-04-16T02:33:46.820Z,0.00
2019-04-16T02:34:46.782Z,0.00
2019-04-16T02:35:46.745Z,0.00
2019-04-16T02:36:46.735Z,0.00
2019-04-16T02:37:46.719Z,0.00
2019-04-16T02:38:52.722Z,0.00
2019-04-16T02:39:49.342Z,0.00
2019-04-16T02:40:51.382Z,0.00
2019-04-16T02:41:47.686Z,0.00
2019-04-16T02:42:46.676Z,0.00
2019-04-16T02:43:46.664Z,0.00
2019-04-16T02:44:50.089Z,0.00
2019-04-16T02:45:46.629Z,0.00
2019-04-16T02:46:46.619Z,0.00
2019-04-16T02:47:46.610Z,0.00
2019-04-16T02:48:50.597Z,0.00
2019-04-16T02:49:47.638Z,0.00
2019-04-16T02:50:46.578Z,0.00
2019-04-16T02:51:46.573Z,0.00
2019-04-16T02:52:50.312Z,0.00
2019-04-16T02:53:47.538Z,0.00
2019-04-16T02:54:46.543Z,0.00
2019-04-16T02:55:46.551Z,0.00
2019-04-16T02:56:51.702Z,0.00
2019-04-16T02:57:47.495Z,0.00
2019-04-16T02:58:46.482Z,0.00
2019-04-16T02:59:47.897Z,0.00
2019-04-16T03:00:50.439Z,0.00
2019-04-16T03:01:46.447Z,0.00
2019-04-16T03:02:46.435Z,0.00
2019-04-16T03:03:46.423Z,0.00
2019-04-16T03:04:46.423Z,0.00
2019-04-16T03:05:46.438Z,0.00
2019-04-16T03:06:46.407Z,0.00
2019-04-16T03:07:46.381Z,0.00
2019-04-16T03:08:46.373Z,0.00
2019-04-16T03:10:00.344Z,0.00
2019-04-16T03:10:47.368Z,0.00
2019-04-16T03:11:48.963Z,0.00
2019-04-16T03:12:46.324Z,0.00
2019-04-16T03:13:46.326Z,0.00
2019-04-16T03:14:46.309Z,0.00
2019-04-16T03:15:46.315Z,0.00
2019-04-16T03:16:46.289Z,0.00
2019-04-16T03:17:46.280Z,0.00
2019-04-16T03:18:47.384Z,0.00
2019-04-16T03:19:51.029Z,0.00
2019-04-16T03:20:47.253Z,0.00
2019-04-16T03:21:46.227Z,0.00
2019-04-16T03:22:46.213Z,0.00
2019-04-16T03:23:46.211Z,0.00
2019-04-16T03:24:46.216Z,0.00
2019-04-16T03:25:46.176Z,0.00
2019-04-16T03:26:47.568Z,0.00
2019-04-16T03:27:46.165Z,0.00
2019-04-16T03:28:46.249Z,0.00
2019-04-16T03:29:46.140Z,0.00
2019-04-16T03:30:46.154Z,0.00
2019-04-16T03:31:46.147Z,0.00
2019-04-16T03:32:46.107Z,0.00
2019-04-16T03:33:50.420Z,0.00
2019-04-16T03:34:46.091Z,0.00
2019-04-16T03:35:46.085Z,0.00
2019-04-16T03:36:46.095Z,0.00
2019-04-16T03:37:46.048Z,4.00
2019-04-16T03:38:46.035Z,4.00
2019-04-16T03:39:46.032Z,0.00
2019-04-16T03:40:46.014Z,4.00
2019-04-16T03:41:46.030Z,4.00
2019-04-16T03:42:46.006Z,4.00
2019-04-16T03:43:45.987Z,8.00
2019-04-16T03:44:45.977Z,8.00
2019-04-16T03:45:45.987Z,8.00
2019-04-16T03:46:46.879Z,8.00
2019-04-16T03:47:50.926Z,12.00
2019-04-16T03:48:46.926Z,12.00
2019-04-16T03:49:45.912Z,12.00
2019-04-16T03:50:45.913Z,16.00
2019-04-16T03:51:45.896Z,16.00
2019-04-16T03:52:45.970Z,24.00
2019-04-16T03:53:46.457Z,24.00
2019-04-16T03:54:45.853Z,24.00
2019-04-16T03:55:45.845Z,32.00
2019-04-16T03:56:45.838Z,36.00
2019-04-16T03:57:45.856Z,40.00
2019-04-16T03:58:45.828Z,44.00
2019-04-16T03:59:45.800Z,52.00
2019-04-16T04:00:45.794Z,56.00
2019-04-16T04:01:46.725Z,68.00
2019-04-16T04:02:45.797Z,72.00
2019-04-16T04:03:45.771Z,84.00
2019-04-16T04:04:45.746Z,92.00
2019-04-16T04:05:45.743Z,100.00
2019-04-16T04:06:45.723Z,108.00
2019-04-16T04:07:45.727Z,120.00
2019-04-16T04:08:48.276Z,132.00
2019-04-16T04:09:45.706Z,140.00
2019-04-16T04:10:45.678Z,152.00
2019-04-16T04:11:45.669Z,168.00
2019-04-16T04:12:46.608Z,180.00
2019-04-16T04:13:49.728Z,192.00
2019-04-16T04:14:46.649Z,208.00
2019-04-16T04:15:45.638Z,220.00
2019-04-16T04:16:45.614Z,240.00
2019-04-16T04:17:45.602Z,252.00
2019-04-16T04:18:45.623Z,268.00
2019-04-16T04:19:46.247Z,288.00
2019-04-16T04:20:49.430Z,304.00
2019-04-16T04:21:45.732Z,320.00
2019-04-16T04:22:45.572Z,340.00
2019-04-16T04:23:45.568Z,356.00
2019-04-16T04:24:45.543Z,372.00
2019-04-16T04:25:45.538Z,392.00
2019-04-16T04:26:45.543Z,408.00
2019-04-16T04:27:46.718Z,428.00
2019-04-16T04:28:45.520Z,452.00
2019-04-16T04:29:46.402Z,468.00
2019-04-16T04:30:48.610Z,492.00
2019-04-16T04:31:45.447Z,512.00
2019-04-16T04:32:47.568Z,524.00
2019-04-16T04:33:45.462Z,548.00
2019-04-16T04:34:48.523Z,564.00
2019-04-16T04:35:45.414Z,580.00
2019-04-16T04:36:45.405Z,600.00
2019-04-16T04:37:45.388Z,620.00
2019-04-16T04:38:45.397Z,644.00
2019-04-16T04:39:45.371Z,668.00
2019-04-16T04:40:50.484Z,696.00
2019-04-16T04:41:46.341Z,724.00
2019-04-16T04:42:45.343Z,744.00
2019-04-16T04:43:45.353Z,768.00
2019-04-16T04:44:46.954Z,796.00
2019-04-16T04:45:45.291Z,816.00
2019-04-16T04:46:46.098Z,836.00
2019-04-16T04:47:45.288Z,848.00
2019-04-16T04:48:45.299Z,872.00
2019-04-16T04:49:45.254Z,896.00
2019-04-16T04:50:45.241Z,920.00
2019-04-16T04:51:45.221Z,936.00
2019-04-16T04:52:46.100Z,964.00
2019-04-16T04:53:47.612Z,992.00
2019-04-16T04:54:45.351Z,1020.00
2019-04-16T04:55:45.203Z,1036.00
2019-04-16T04:56:45.189Z,1052.00
2019-04-16T04:57:45.164Z,1072.00
2019-04-16T04:58:45.153Z,1088.00
2019-04-16T04:59:45.165Z,1112.00
2019-04-16T05:00:45.177Z,1144.00
2019-04-16T05:01:45.123Z,1172.00
2019-04-16T05:02:45.123Z,1192.00
2019-04-16T05:03:47.425Z,1212.00
2019-04-16T05:04:45.106Z,1228.00
2019-04-16T05:05:45.067Z,1248.00
2019-04-16T05:06:45.063Z,1268.00
2019-04-16T05:07:45.061Z,1288.00
2019-04-16T05:08:45.043Z,1304.00
2019-04-16T05:09:45.049Z,1320.00
2019-04-16T05:10:58.030Z,1344.00
2019-04-16T05:11:48.504Z,1360.00
2019-04-16T05:12:45.003Z,1380.00
2019-04-16T05:13:44.993Z,1400.00
2019-04-16T05:14:45.006Z,1416.00
2019-04-16T05:15:44.965Z,1436.00
2019-04-16T05:16:44.957Z,1456.00
2019-04-16T05:17:44.933Z,1472.00
2019-04-16T05:18:44.929Z,1496.00
2019-04-16T05:19:44.938Z,1520.00
2019-04-16T05:20:46.948Z,1540.00
2019-04-16T05:21:49.694Z,1564.00
2019-04-16T05:22:45.881Z,1584.00
2019-04-16T05:23:44.876Z,1608.00
2019-04-16T05:24:44.882Z,1636.00
2019-04-16T05:25:44.876Z,1660.00
2019-04-16T05:26:44.906Z,1684.00
2019-04-16T05:27:44.832Z,1704.00
2019-04-16T05:28:45.715Z,1728.00
2019-04-16T05:29:48.351Z,1748.00
2019-04-16T05:30:44.819Z,1776.00
2019-04-16T05:31:44.779Z,1800.00
2019-04-16T05:32:44.774Z,1820.00
2019-04-16T05:33:44.773Z,1848.00
2019-04-16T05:34:44.818Z,1868.00
2019-04-16T05:35:44.754Z,1892.00
2019-04-16T05:36:47.759Z,1912.00
2019-04-16T05:37:44.712Z,1936.00
2019-04-16T05:38:44.713Z,1956.00
2019-04-16T05:39:44.707Z,1984.00
2019-04-16T05:40:44.720Z,2012.00
2019-04-16T05:41:44.674Z,2040.00
2019-04-16T05:42:44.651Z,2064.00
2019-04-16T05:43:44.657Z,2092.00
2019-04-16T05:44:44.644Z,2124.00
2019-04-16T05:45:44.652Z,2152.00
2019-04-16T05:46:46.827Z,2196.00
2019-04-16T05:47:48.760Z,2244.00
2019-04-16T05:48:44.592Z,2352.00
2019-04-16T05:49:44.581Z,2732.00
2019-04-16T05:50:44.595Z,3700.00
2019-04-16T05:51:44.554Z,3292.00
2019-04-16T05:52:44.546Z,2640.00
2019-04-16T05:53:44.557Z,2552.00
2019-04-16T05:54:45.361Z,2728.00
2019-04-16T05:55:49.374Z,2936.00
2019-04-16T05:56:45.495Z,3292.00
2019-04-16T05:57:44.487Z,3012.00
2019-04-16T05:58:44.492Z,2624.00
2019-04-16T05:59:44.463Z,2568.00
2019-04-16T06:00:44.495Z,2576.00
2019-04-16T06:01:45.449Z,2604.00
2019-04-16T06:02:44.446Z,2628.00
2019-04-16T06:03:44.420Z,2652.00
2019-04-16T06:04:44.418Z,2688.00
2019-04-16T06:05:44.400Z,2716.00
2019-04-16T06:06:44.406Z,2744.00
2019-04-16T06:07:44.392Z,2776.00
2019-04-16T06:08:44.367Z,2800.00
2019-04-16T06:09:45.224Z,2832.00
2019-04-16T06:10:44.353Z,2868.00
2019-04-16T06:11:44.389Z,2904.00
2019-04-16T06:12:44.330Z,2936.00
2019-04-16T06:13:45.146Z,2968.00
2019-04-16T06:14:46.447Z,3000.00
2019-04-16T06:15:45.289Z,3024.00
2019-04-16T06:16:44.322Z,3060.00
2019-04-16T06:17:44.272Z,3088.00
2019-04-16T06:18:44.257Z,3120.00
2019-04-16T06:19:46.827Z,3156.00
2019-04-16T06:20:44.228Z,3176.00
2019-04-16T06:21:44.235Z,3212.00
2019-04-16T06:22:44.209Z,3236.00
2019-04-16T06:23:44.198Z,3268.00
2019-04-16T06:24:44.238Z,3288.00
2019-04-16T06:25:44.164Z,3316.00
2019-04-16T06:26:44.453Z,3344.00
2019-04-16T06:27:44.164Z,3372.00
2019-04-16T06:28:44.167Z,3396.00
2019-04-16T06:29:46.922Z,3424.00
2019-04-16T06:30:44.121Z,3452.00
2019-04-16T06:31:44.159Z,3472.00
2019-04-16T06:32:44.103Z,3504.00
2019-04-16T06:33:44.097Z,3524.00
2019-04-16T06:34:44.080Z,3552.00
2019-04-16T06:35:44.087Z,3576.00
2019-04-16T06:36:44.051Z,3596.00
2019-04-16T06:37:45.714Z,3624.00
2019-04-16T06:38:44.036Z,3648.00
2019-04-16T06:39:44.031Z,3672.00
2019-04-16T06:40:44.035Z,3696.00
2019-04-16T06:41:47.685Z,3708.00
2019-04-16T06:42:43.999Z,3736.00
2019-04-16T06:43:43.967Z,3768.00
2019-04-16T06:44:43.972Z,3792.00
2019-04-16T06:45:43.977Z,3820.00
2019-04-16T06:46:43.983Z,3844.00
2019-04-16T06:47:43.987Z,3872.00
2019-04-16T06:48:45.935Z,3900.00
2019-04-16T06:49:43.909Z,3928.00
2019-04-16T06:50:43.908Z,3952.00
2019-04-16T06:51:44.759Z,3976.00
2019-04-16T06:52:46.207Z,4000.00
2019-04-16T06:53:43.870Z,4036.00
2019-04-16T06:54:45.458Z,4052.00
2019-04-16T06:55:43.847Z,4076.00
2019-04-16T06:56:43.847Z,4108.00
2019-04-16T06:57:43.976Z,4136.00
2019-04-16T06:58:50.809Z,4164.00
2019-04-16T06:59:44.790Z,4184.00
2019-04-16T07:00:43.787Z,4200.00
2019-04-16T07:01:43.784Z,4216.00
2019-04-16T07:03:01.091Z,4240.00
2019-04-16T07:03:44.773Z,4268.00
2019-04-16T07:04:43.735Z,4292.00
2019-04-16T07:05:43.729Z,4320.00
2019-04-16T07:06:44.033Z,4344.00
2019-04-16T07:07:46.787Z,4368.00
2019-04-16T07:08:43.722Z,4392.00
2019-04-16T07:09:45.878Z,4416.00
2019-04-16T07:10:44.806Z,4444.00
2019-04-16T07:11:53.820Z,4472.00
2019-04-16T07:12:44.673Z,4496.00
2019-04-16T07:13:43.669Z,4528.00
2019-04-16T07:14:45.521Z,4556.00
2019-04-16T07:15:43.628Z,4596.00
2019-04-16T07:16:43.608Z,4640.00
2019-04-16T07:17:43.603Z,4668.00
2019-04-16T07:18:43.604Z,4700.00
2019-04-16T07:19:43.574Z,4716.00
2019-04-16T07:20:45.697Z,4724.00
2019-04-16T07:21:48.672Z,4752.00
2019-04-16T07:22:44.661Z,4780.00
2019-04-16T07:23:45.925Z,4788.00
2019-04-16T07:24:43.732Z,4808.00
2019-04-16T07:25:44.889Z,4832.00
2019-04-16T07:26:46.926Z,4852.00
2019-04-16T07:27:43.478Z,4872.00
2019-04-16T07:28:43.552Z,4888.00
2019-04-16T07:29:46.527Z,4916.00
2019-04-16T07:30:43.471Z,4936.00
2019-04-16T07:31:43.472Z,4952.00
2019-04-16T07:32:43.425Z,4980.00
2019-04-16T07:33:43.440Z,4984.00
2019-04-16T07:34:43.403Z,4996.00
2019-04-16T07:35:43.408Z,5020.00
2019-04-16T07:36:43.393Z,5036.00
2019-04-16T07:37:43.371Z,5064.00
2019-04-16T07:38:43.390Z,5096.00
2019-04-16T07:39:46.346Z,5112.00
2019-04-16T07:40:43.341Z,5132.00
2019-04-16T07:41:43.889Z,5160.00
2019-04-16T07:42:51.793Z,5160.00
2019-04-16T07:43:44.893Z,5176.00
2019-04-16T07:44:43.315Z,5192.00
2019-04-16T07:45:43.279Z,5208.00
2019-04-16T07:46:44.262Z,5216.00
2019-04-16T07:47:43.272Z,5248.00
2019-04-16T07:48:43.266Z,5276.00
2019-04-16T07:49:43.242Z,5296.00
2019-04-16T07:50:43.241Z,5316.00
2019-04-16T07:51:43.207Z,5316.00
2019-04-16T07:52:43.213Z,5336.00
2019-04-16T07:53:47.152Z,5360.00
2019-04-16T07:54:43.196Z,5372.00
2019-04-16T07:55:43.166Z,5396.00
2019-04-16T07:56:43.159Z,5416.00
2019-04-16T07:57:43.150Z,5432.00
2019-04-16T07:58:43.156Z,5432.00
2019-04-16T07:59:43.151Z,5452.00
2019-04-16T08:00:43.117Z,5452.00
2019-04-16T08:01:44.123Z,5464.00
2019-04-16T08:02:43.089Z,5492.00
2019-04-16T08:03:43.090Z,5504.00
2019-04-16T08:04:43.078Z,5520.00
2019-04-16T08:05:43.069Z,5528.00
2019-04-16T08:06:46.254Z,5552.00
2019-04-16T08:07:43.037Z,5560.00
2019-04-16T08:08:43.141Z,5592.00
2019-04-16T08:09:44.394Z,5616.00
2019-04-16T08:10:43.016Z,5644.00
2019-04-16T08:11:42.999Z,5680.00
2019-04-16T08:12:42.994Z,5716.00
2019-04-16T08:13:42.985Z,5732.00
2019-04-16T08:14:42.950Z,5740.00
2019-04-16T08:15:42.971Z,5736.00
2019-04-16T08:16:47.717Z,5744.00
2019-04-16T08:17:43.915Z,5736.00
2019-04-16T08:18:42.912Z,5768.00
2019-04-16T08:19:44.725Z,5808.00
2019-04-16T08:20:43.892Z,5832.00
2019-04-16T08:21:44.270Z,5852.00
2019-04-16T08:22:47.270Z,5864.00
2019-04-16T08:23:43.852Z,5876.00
2019-04-16T08:24:42.867Z,5892.00
2019-04-16T08:25:42.831Z,5916.00
2019-04-16T08:26:45.033Z,5924.00
2019-04-16T08:27:42.808Z,5956.00
2019-04-16T08:28:42.806Z,5988.00
2019-04-16T08:29:42.813Z,6000.00
2019-04-16T08:30:42.769Z,6016.00
2019-04-16T08:31:44.519Z,6028.00
2019-04-16T08:32:45.738Z,6000.00
2019-04-16T08:33:43.759Z,5936.00
2019-04-16T08:34:42.758Z,5900.00
2019-04-16T08:35:42.749Z,5900.00
2019-04-16T08:36:42.707Z,5876.00
2019-04-16T08:37:49.355Z,5860.00
2019-04-16T08:38:43.691Z,5856.00
2019-04-16T08:39:42.697Z,5888.00
2019-04-16T08:40:46.028Z,5880.00
2019-04-16T08:41:42.664Z,5880.00
2019-04-16T08:42:44.721Z,5876.00
2019-04-16T08:43:42.627Z,5896.00
2019-04-16T08:44:42.619Z,5896.00
2019-04-16T08:45:42.624Z,5908.00
2019-04-16T08:46:42.616Z,5932.00
2019-04-16T08:47:45.098Z,5924.00
2019-04-16T08:48:42.585Z,5928.00
2019-04-16T08:49:42.562Z,5936.00
2019-04-16T08:50:42.570Z,5956.00
2019-04-16T08:51:42.530Z,5976.00
2019-04-16T08:52:42.661Z,6044.00
2019-04-16T08:53:43.811Z,6072.00
2019-04-16T08:54:42.496Z,6076.00
2019-04-16T08:55:42.523Z,6084.00
2019-04-16T08:56:43.283Z,6136.00
2019-04-16T08:57:42.465Z,6204.00
2019-04-16T08:58:42.456Z,6232.00
2019-04-16T08:59:43.277Z,6260.00
2019-04-16T09:00:45.902Z,6276.00
2019-04-16T09:01:42.425Z,6296.00
2019-04-16T09:02:42.427Z,6332.00
2019-04-16T09:03:42.403Z,6388.00
2019-04-16T09:04:42.381Z,6396.00
2019-04-16T09:05:42.555Z,6392.00
2019-04-16T09:06:45.851Z,6408.00
2019-04-16T09:07:42.370Z,6424.00
2019-04-16T09:08:42.354Z,6468.00
2019-04-16T09:09:42.337Z,6472.00
2019-04-16T09:10:44.634Z,6464.00
2019-04-16T09:11:42.323Z,6500.00
2019-04-16T09:12:47.516Z,6528.00
2019-04-16T09:13:44.471Z,6560.00
2019-04-16T09:14:42.272Z,6592.00
2019-04-16T09:15:42.258Z,6632.00
2019-04-16T09:16:43.669Z,6680.00
2019-04-16T09:17:42.241Z,6708.00
2019-04-16T09:18:42.236Z,6740.00
2019-04-16T09:19:42.224Z,6784.00
2019-04-16T09:20:42.211Z,6828.00
2019-04-16T09:21:44.190Z,6876.00
2019-04-16T09:22:48.944Z,6920.00
2019-04-16T09:23:43.178Z,6928.00
2019-04-16T09:24:42.175Z,6912.00
2019-04-16T09:25:42.458Z,6924.00
2019-04-16T09:26:43.810Z,6940.00
2019-04-16T09:27:42.121Z,6988.00
2019-04-16T09:28:42.124Z,7016.00
2019-04-16T09:29:42.117Z,7028.00
2019-04-16T09:30:42.117Z,7048.00
2019-04-16T09:31:42.112Z,7092.00
2019-04-16T09:32:42.065Z,7096.00
2019-04-16T09:33:42.056Z,7112.00
2019-04-16T09:34:42.048Z,7288.00
2019-04-16T09:35:44.933Z,7416.00
2019-04-16T09:36:42.045Z,7372.00
2019-04-16T09:37:42.015Z,7320.00
2019-04-16T09:38:45.196Z,7284.00
2019-04-16T09:39:41.985Z,7272.00
2019-04-16T09:40:41.986Z,7276.00
2019-04-16T09:41:41.982Z,7312.00
2019-04-16T09:42:41.971Z,7400.00
2019-04-16T09:43:41.941Z,7472.00
2019-04-16T09:44:41.933Z,7524.00
2019-04-16T09:45:41.919Z,7532.00
2019-04-16T09:46:51.622Z,7620.00
2019-04-16T09:47:42.901Z,7744.00
2019-04-16T09:48:41.904Z,7856.00
2019-04-16T09:49:41.873Z,7880.00
2019-04-16T09:50:46.615Z,7956.00
2019-04-16T09:51:42.875Z,8020.00
2019-04-16T09:52:41.880Z,8112.00
2019-04-16T09:53:41.840Z,8324.00
2019-04-16T09:54:44.474Z,8548.00
2019-04-16T09:55:41.805Z,8656.00
2019-04-16T09:56:41.823Z,8608.00
2019-04-16T09:57:41.777Z,8672.00
2019-04-16T09:58:42.640Z,9180.00
2019-04-16T09:59:44.738Z,9936.00
2019-04-16T10:00:42.747Z,10728.00
2019-04-16T10:01:41.761Z,11536.00
2019-04-16T10:02:41.756Z,12128.00
2019-04-16T10:03:41.721Z,13668.00
2019-04-16T10:04:41.732Z,19872.00
2019-04-16T10:05:41.699Z,38944.00
2019-04-16T10:06:41.725Z,51456.00
2019-04-16T10:07:41.684Z,50048.00
2019-04-16T10:08:44.506Z,43424.00
2019-04-16T10:09:41.657Z,41600.00
2019-04-16T10:10:41.667Z,43776.00
2019-04-16T10:11:41.658Z,44288.00
2019-04-16T10:12:41.659Z,42112.00
2019-04-16T10:13:41.626Z,67424.00
2019-04-16T10:14:41.613Z,95840.00
2019-04-16T10:15:41.592Z,102560.00
2019-04-16T10:16:41.628Z,98272.00
2019-04-16T10:17:41.556Z,103040.00
2019-04-16T10:18:41.545Z,101760.00
2019-04-16T10:19:43.276Z,101440.00
2019-04-16T10:20:41.535Z,99200.00
2019-04-16T10:21:41.534Z,97568.00
2019-04-16T10:22:41.495Z,100000.00
2019-04-16T10:23:41.482Z,99552.00
2019-04-16T10:24:41.473Z,104160.00
2019-04-16T10:25:41.470Z,105920.00
2019-04-16T10:26:41.561Z,104864.00
2019-04-16T10:27:41.492Z,104704.00
2019-04-16T10:28:41.432Z,103872.00
2019-04-16T10:29:41.416Z,102656.00
2019-04-16T10:30:41.416Z,105248.00
2019-04-16T10:31:41.438Z,103872.00
2019-04-16T10:32:41.416Z,105376.00
2019-04-16T10:33:41.378Z,105088.00
2019-04-16T10:34:41.364Z,107360.00
2019-04-16T10:35:41.370Z,100320.00
2019-04-16T10:36:41.385Z,97792.00
2019-04-16T10:37:41.328Z,102816.00
2019-04-16T10:38:41.337Z,97952.00
2019-04-16T10:39:41.322Z,101696.00
2019-04-16T10:40:41.302Z,105024.00
2019-04-16T10:41:41.311Z,98592.00
2019-04-16T10:42:41.281Z,102368.00
2019-04-16T10:43:44.713Z,102240.00
2019-04-16T10:44:41.265Z,101184.00
2019-04-16T10:45:41.265Z,96672.00
2019-04-16T10:46:41.253Z,100864.00
2019-04-16T10:47:41.232Z,102080.00
2019-04-16T10:48:41.243Z,99936.00
2019-04-16T10:49:41.248Z,108864.00
2019-04-16T10:50:41.231Z,119520.00
2019-04-16T10:51:41.196Z,124032.00
2019-04-16T10:52:41.202Z,129088.00
2019-04-16T10:53:41.161Z,128608.00
2019-04-16T10:54:41.177Z,130976.00
2019-04-16T10:55:41.170Z,134848.00
2019-04-16T10:56:41.158Z,141920.00
2019-04-16T10:57:41.172Z,141344.00
2019-04-16T10:58:41.131Z,141760.00
2019-04-16T10:59:41.099Z,133760.00
2019-04-16T11:00:41.087Z,131904.00
2019-04-16T11:01:41.080Z,128768.00
2019-04-16T11:02:41.101Z,138720.00
2019-04-16T11:03:41.086Z,138432.00
2019-04-16T11:04:43.334Z,143200.00
2019-04-16T11:05:41.036Z,138688.00
2019-04-16T11:06:41.107Z,137696.00
2019-04-16T11:07:41.165Z,134720.00
2019-04-16T11:08:41.300Z,139776.00
2019-04-16T11:09:41.008Z,137632.00
2019-04-16T11:10:40.986Z,135584.00
2019-04-16T11:11:41.007Z,139296.00
2019-04-16T11:12:41.022Z,138592.00
2019-04-16T11:13:40.970Z,135456.00
2019-04-16T11:14:40.971Z,136800.00
2019-04-16T11:15:40.988Z,134944.00
2019-04-16T11:16:40.929Z,133728.00
2019-04-16T11:17:40.960Z,136512.00
2019-04-16T11:18:40.915Z,132224.00
2019-04-16T11:19:40.902Z,134304.00
2019-04-16T11:20:40.928Z,133600.00
2019-04-16T11:21:40.906Z,131520.00
2019-04-16T11:22:40.913Z,130272.00
2019-04-16T11:23:40.874Z,133824.00
2019-04-16T11:24:40.864Z,132480.00
2019-04-16T11:25:40.854Z,130816.00
2019-04-16T11:26:44.190Z,120192.00
2019-04-16T11:27:40.895Z,119072.00
2019-04-16T11:28:40.907Z,113280.00
2019-04-16T11:29:41.925Z,114368.00
2019-04-16T11:30:40.807Z,119232.00
2019-04-16T11:31:40.816Z,121760.00
2019-04-16T11:32:40.863Z,122144.00
2019-04-16T11:33:40.837Z,123328.00
2019-04-16T11:34:40.773Z,119232.00
2019-04-16T11:35:40.794Z,121088.00
2019-04-16T11:36:40.756Z,119232.00
2019-04-16T11:37:43.660Z,112928.00
2019-04-16T11:38:40.744Z,105152.00
2019-04-16T11:39:40.736Z,99392.00
2019-04-16T11:40:41.218Z,98848.00
2019-04-16T11:41:40.747Z,103392.00
2019-04-16T11:42:40.756Z,109280.00
2019-04-16T11:43:40.812Z,113248.00
2019-04-16T11:44:40.710Z,116640.00
2019-04-16T11:45:40.718Z,116224.00
2019-04-16T11:46:40.695Z,114752.00
2019-04-16T11:47:40.690Z,113024.00
2019-04-16T11:48:40.712Z,113216.00
2019-04-16T11:49:40.640Z,117888.00
2019-04-16T11:50:40.625Z,117952.00
2019-04-16T11:51:40.659Z,119328.00
2019-04-16T11:52:40.644Z,120864.00
2019-04-16T11:53:40.638Z,122592.00
2019-04-16T11:54:40.599Z,119680.00
2019-04-16T11:55:40.628Z,120832.00
2019-04-16T11:56:40.598Z,118624.00
2019-04-16T11:57:40.603Z,115488.00
2019-04-16T11:58:40.621Z,112352.00
2019-04-16T11:59:40.559Z,112512.00
2019-04-16T12:00:40.545Z,113888.00
2019-04-16T12:01:40.537Z,113856.00
2019-04-16T12:02:40.516Z,110560.00
2019-04-16T12:03:40.535Z,115648.00
2019-04-16T12:04:40.517Z,111840.00
2019-04-16T12:05:40.500Z,113504.00
2019-04-16T12:06:40.492Z,117184.00
2019-04-16T12:07:40.489Z,117248.00
2019-04-16T12:08:40.557Z,109888.00
2019-04-16T12:09:40.494Z,106336.00
2019-04-16T12:10:40.486Z,104096.00
2019-04-16T12:11:40.479Z,108896.00
2019-04-16T12:12:40.449Z,113792.00
2019-04-16T12:13:40.451Z,112864.00
2019-04-16T12:14:42.475Z,108288.00
2019-04-16T12:15:40.416Z,115936.00
2019-04-16T12:16:40.441Z,109792.00
2019-04-16T12:17:40.394Z,103136.00
2019-04-16T12:18:40.458Z,58880.00
2019-04-16T12:19:40.417Z,48000.00
2019-04-16T12:20:40.398Z,69536.00
2019-04-16T12:21:40.360Z,83520.00